This demonstration page uses our WeatherBlox Daily Observations layout. Learn more.

38.89511, -77.03637

Hourly Observations for October 6, 2015

Temp ( °F °C ) Dew Point ( °F °C ) Humidity (%) Winds ( mph kmh ) Pressure ( in mb ) Visibility ( mi km ) Precip ( " mm )
12:52 am 00:52 Clear 56 13.3 51 10.6 84 84 Calm 30.11 1020 10 16.0934 0 0
1:52 am 01:52 Clear 53 11.7 49 9.4 86 86 N 5 7 30.1 1019 10 16.0934 0 0
2:52 am 02:52 Mostly Clear 53 11.7 50 10 89 89 N 3 6 30.09 1019 10 16.0934 0 0
3:52 am 03:52 Mostly Clear 52 11.1 49 9.4 89 89 N 5 7 30.08 1019 10 16.0934 0 0
4:52 am 04:52 Mostly Clear 51 10.6 48 8.9 89 89 N 6 9 30.08 1019 10 16.0934 0 0
5:52 am 05:52 Mostly Clear 51 10.6 48 8.9 89 89 N 5 7 30.09 1019 10 16.0934 0 0
6:52 am 06:52 Mostly Clear 51 10.6 47 8.3 86 86 NNW 5 7 30.09 1019 10 16.0934 0 0
7:52 am 07:52 Partly Cloudy 53 11.7 48 8.9 83 83 N 5 7 30.11 1020 10 16.0934 0 0
8:52 am 08:52 Mostly Sunny 57 13.9 50 10 78 78 NNE 5 7 30.11 1020 10 16.0934 0 0
9:52 am 09:52 Mostly Sunny 62 16.7 50 10 65 65 N 6 9 30.11 1020 10 16.0934 0 0
10:52 am 10:52 Mostly Sunny 63 17.2 50 10 63 63 Calm 30.09 1019 10 16.0934 0 0
11:52 am 11:52 Mostly Sunny 69 20.6 50 10 51 51 Calm 30.08 1019 10 16.0934 0 0
12:52 pm 12:52 Mostly Sunny 72 22.2 49 9.4 44 44 N 5 7 30.06 1018 10 16.0934 0 0
1:52 pm 13:52 Partly Cloudy 73 22.8 49 9.4 43 43 E 5 7 30.04 1017 10 16.0934 0 0
2:52 pm 14:52 Mostly Sunny 75 23.9 49 9.4 40 40 VRB 3 6 30.02 1017 10 16.0934 0 0
3:52 pm 15:52 Mostly Sunny 76 24.4 49 9.4 39 39 Calm 30 1016 10 16.0934 0 0
4:52 pm 16:52 Partly Cloudy 76 24.4 50 10 40 40 NNW 9 15 30 1016 10 16.0934 0 0
5:52 pm 17:52 Mostly Cloudy 74 23.3 50 10 43 43 NW 8 13 30 1016 10 16.0934 0 0
6:52 pm 18:52 Mostly Cloudy 71 21.7 51 10.6 49 49 NW 8 13 30 1016 10 16.0934 0 0
7:52 pm 19:52 Mostly Cloudy 70 21.1 52 11.1 53 53 NNW 8 13 30 1016 10 16.0934 0 0
8:52 pm 20:52 Mostly Cloudy 64 17.8 55 12.8 73 73 Calm 30 1016 10 16.0934 0 0
9:52 pm 21:52 Clear 62 16.7 57 13.9 84 84 SSE 6 9 29.99 1016 10 16.0934 0 0
10:52 pm 22:52 Mostly Cloudy 61 16.1 57 13.9 87 87 S 3 6 30 1016 10 16.0934 0 0
11:52 pm 23:52 Mostly Cloudy 61 16.1 57 13.9 87 87 Calm 30 1016 10 16.0934 0 0

Powered by AerisWeather